• Join FlightAware (Why Join?)
  • Login
  • US Flag 
02:14AM EDT


 

Airport Tracker/Info


-or-


 

Live Flight TrackerFlight Track Log ✈ PDT4155 ✈ 27-Sep-2013 ✈ KBGM - KPHL

Flight Track Log - Related Links

Times and Time Zones

All times are in EDT time to prevent confusion due to time zone crossing. See the PDT4155 flight status page for this flight to view local times or setup timezone preferences in your user account.

Time Position Orientation Groundspeed Altitude Reporting Facility
EDT Latitude Longitude Course Direction KTS MPH feet Rate Location/Type
07:10AM 42.0348 -75.9228 180° South  Level Estimated
07:11AM 41.9753 -75.9250 182° South  Level FlightAware Approximate
07:12AM 41.9158 -75.9272 182° South  Level FlightAware Approximate
07:13AM 41.8562 -75.9294 182° South  Level FlightAware Approximate
07:14AM 41.7987 -75.9088 154° Southeast  Level Estimated
07:15AM 41.7411 -75.8883 160° South  Level Estimated
07:16AM 41.6836 -75.8678 159° South  Level Estimated
07:17AM 41.6262 -75.8465 165° South  Level FlightAware Approximate
07:18AM 41.5686 -75.8261 153° Southeast  Level Estimated
07:19AM 41.5111 -75.8058 161° South  Level Estimated
07:20AM 41.4553 -75.7777 159° South  Level FlightAware Approximate
07:21AM 41.3996 -75.7498 159° South  Level FlightAware Approximate
07:22AM 41.3419 -75.7301 162° South  Level Estimated
07:23AM 41.2859 -75.7032 160° South  Level FlightAware Approximate
07:24AM 41.2299 -75.6764 160° South  Level FlightAware Approximate
07:25AM 41.1738 -75.6496 160° South  Level FlightAware Approximate
07:26AM 41.1178 -75.6228 160° South  Level FlightAware Approximate
07:27AM 41.0598 -75.6047 159° South  Level Estimated
07:28AM 41.0019 -75.5866 163° South  Level Estimated
07:29AM 40.9459 -75.5597 160° South  Level FlightAware Approximate
07:30AM 40.8899 -75.5328 160° South  Level FlightAware Approximate
07:31AM 40.8339 -75.5060 160° South  Level FlightAware Approximate
07:32AM 40.7757 -75.4897 190° South  Level Estimated
07:33AM 40.7161 -75.4920 182° South  Level FlightAware Approximate
07:34AM 40.6566 -75.4942 182° South  Level FlightAware Approximate
07:35AM 40.5971 -75.4964 182° South  Level FlightAware Approximate
07:36AM 40.5396 -75.4759 187° South  Level Estimated
07:37AM 40.4821 -75.4555 190° South  Level Estimated
07:37AM 40.5667 -75.5667 143° Southeast 245 282 7,000  Level Philadelphia TRACON
07:38AM 40.4252 -75.4787 197° South  Level FlightAware Approximate
07:38AM 40.4667 -75.5667 180° South 253 291 6,000  Level Philadelphia TRACON
07:39AM 40.3683 -75.5019 197° South  Level FlightAware Approximate
07:39AM 40.4000 -75.5667 180° South 252 290 5,300  Level Philadelphia TRACON
07:40AM 40.3131 -75.4726 180° South  Level Estimated
07:41AM 40.2579 -75.4434 143° Southeast  Level Estimated
07:41AM 40.3167 -75.5667 180° South 242 278 5,000  Level Philadelphia TRACON
07:41AM 40.2833 -75.5667 180° South 232 267 5,000 -120 Level Philadelphia TRACON
07:42AM 40.2027 -75.4143 143° Southeast  Level Estimated
07:42AM 40.2000 -75.5500 171° South 235 270 4,800  Level Philadelphia TRACON
07:43AM 40.1833 -75.4667 105° East 237 273 4,200 -420 Descending Philadelphia TRACON
07:44AM 40.1833 -75.3833 90° East 230 265 4,000 -120 Descending Philadelphia TRACON
07:45AM 40.1667 -75.3167 108° East 222 255 4,000  Level Philadelphia TRACON
07:46AM 40.1333 -75.2667 131° Southeast 224 258 4,000  Level Philadelphia TRACON
07:47AM 40.0667 -75.2333 159° South 218 251 4,000  Level Philadelphia TRACON
07:48AM 40.0167 -75.2000 153° Southeast 215 247 4,000  Level Philadelphia TRACON
07:49AM 39.9500 -75.1667 159° South 212 244 4,000 -420 Level Philadelphia TRACON
07:50AM 39.8833 -75.1500 169° South 211 243 3,200 -1,140 Descending Philadelphia TRACON
07:52AM 39.8333 -75.1333 166° South 183 211 1,700 -900 Descending Philadelphia TRACON
07:52AM 39.8167 -75.1667 237° Southwest 190 219 1,600 -480 Descending Philadelphia TRACON
07:53AM 39.8333 -75.2167 293° West 151 174 900 -720 Descending Philadelphia TRACON